createdAt,value
2022-12-24T00:02:02.986Z,6.10
2022-12-24T00:04:42.705Z,6.05
2022-12-24T00:07:24.115Z,6.04
2022-12-24T00:10:03.994Z,6.05
2022-12-24T00:12:43.739Z,6.09
2022-12-24T00:15:23.495Z,6.07
2022-12-24T00:18:03.468Z,6.05
2022-12-24T00:20:43.112Z,6.05
2022-12-24T00:23:24.940Z,6.06
2022-12-24T00:26:06.084Z,6.07
2022-12-24T00:28:43.882Z,6.06
2022-12-24T00:31:24.190Z,6.04
2022-12-24T00:34:05.353Z,6.09
2022-12-24T00:36:45.136Z,6.12
2022-12-24T00:39:25.023Z,6.05
2022-12-24T00:42:02.862Z,6.09
2022-12-24T00:44:42.972Z,6.12
2022-12-24T00:47:20.867Z,6.14
2022-12-24T00:50:03.044Z,6.11
2022-12-24T00:52:44.610Z,6.10
2022-12-24T00:55:27.500Z,6.13
2022-12-24T00:58:08.376Z,6.17
2022-12-24T01:00:48.208Z,6.19
2022-12-24T01:03:35.230Z,6.19
2022-12-24T01:06:14.935Z,6.19
2022-12-24T01:08:55.707Z,6.22
2022-12-24T01:11:35.444Z,6.20
2022-12-24T01:14:17.245Z,6.23
2022-12-24T01:16:58.329Z,6.18
2022-12-24T01:19:38.062Z,6.21
2022-12-24T01:22:17.911Z,6.23
2022-12-24T01:24:59.715Z,6.24
2022-12-24T01:27:40.703Z,6.23
2022-12-24T01:30:20.496Z,6.25
2022-12-24T01:33:05.733Z,6.19
2022-12-24T01:35:47.709Z,6.26
2022-12-24T01:38:28.050Z,6.27
2022-12-24T01:41:50.166Z,6.28
2022-12-24T01:44:37.054Z,6.29
2022-12-24T01:47:21.485Z,6.31
2022-12-24T01:50:03.010Z,6.33
2022-12-24T01:52:44.196Z,6.33
2022-12-24T01:55:24.450Z,6.37
2022-12-24T01:58:04.914Z,6.38
2022-12-24T02:00:45.695Z,6.38
2022-12-24T02:03:33.072Z,6.38
2022-12-24T02:06:18.061Z,6.38
2022-12-24T02:08:57.872Z,6.37
2022-12-24T02:11:41.192Z,6.40
2022-12-24T02:14:22.237Z,6.51
2022-12-24T02:17:03.581Z,6.54
2022-12-24T02:19:56.744Z,6.64
2022-12-24T02:22:41.336Z,6.69
2022-12-24T02:25:26.216Z,6.77
2022-12-24T02:28:07.777Z,6.83
2022-12-24T02:30:48.904Z,6.94
2022-12-24T02:33:29.949Z,7.03
2022-12-24T02:36:14.150Z,7.16
2022-12-24T02:38:55.786Z,7.28
2022-12-24T02:41:54.006Z,7.38
2022-12-24T02:44:35.321Z,7.45
2022-12-24T02:47:16.101Z,7.49
2022-12-24T02:49:57.299Z,7.57
2022-12-24T02:52:37.830Z,7.64
2022-12-24T02:55:19.128Z,7.67
2022-12-24T02:58:07.508Z,7.70
2022-12-24T03:00:49.738Z,7.74
2022-12-24T03:03:34.760Z,7.83
2022-12-24T03:06:17.605Z,7.83
2022-12-24T03:09:00.965Z,7.85
2022-12-24T03:11:41.369Z,7.91
2022-12-24T03:14:21.171Z,7.93
2022-12-24T03:17:01.310Z,7.92
2022-12-24T03:19:42.402Z,7.92
2022-12-24T03:22:24.484Z,7.96
2022-12-24T03:25:05.779Z,7.94
2022-12-24T03:27:46.622Z,7.96
2022-12-24T03:30:26.546Z,7.99
2022-12-24T03:33:06.288Z,7.96
2022-12-24T03:35:44.180Z,7.99
2022-12-24T03:38:26.241Z,8.01
2022-12-24T03:41:07.565Z,8.05
2022-12-24T03:43:48.648Z,8.04
2022-12-24T03:46:28.472Z,8.05
2022-12-24T03:49:08.269Z,8.06
2022-12-24T03:51:48.085Z,8.04
2022-12-24T03:54:29.924Z,8.09
2022-12-24T03:57:10.888Z,8.10
2022-12-24T03:59:55.703Z,8.12
2022-12-24T04:02:35.398Z,8.12
2022-12-24T04:05:16.141Z,8.09
2022-12-24T04:07:56.559Z,8.09
2022-12-24T04:10:36.358Z,8.09
2022-12-24T04:13:16.139Z,8.11
2022-12-24T04:15:59.590Z,8.12
2022-12-24T04:18:40.819Z,8.11
2022-12-24T04:21:21.991Z,8.11
2022-12-24T04:24:01.787Z,8.08
2022-12-24T04:26:41.795Z,8.11
2022-12-24T04:29:23.048Z,8.10
2022-12-24T04:32:03.027Z,8.07
2022-12-24T04:34:44.209Z,8.09
2022-12-24T04:37:24.004Z,8.09
2022-12-24T04:40:03.885Z,8.08
2022-12-24T04:42:43.605Z,8.07
2022-12-24T04:45:25.072Z,8.07
2022-12-24T04:48:06.026Z,8.04
2022-12-24T04:50:46.250Z,8.07
2022-12-24T04:53:26.066Z,8.06
2022-12-24T04:56:04.215Z,8.03
2022-12-24T04:58:44.088Z,8.02
2022-12-24T05:01:24.936Z,7.98
2022-12-24T05:04:07.855Z,8.04
2022-12-24T05:06:48.311Z,8.02
2022-12-24T05:09:28.087Z,8.02
2022-12-24T05:12:10.255Z,8.01
2022-12-24T05:14:50.909Z,8.04
2022-12-24T05:17:30.730Z,8.01
2022-12-24T05:20:10.732Z,8.01
2022-12-24T05:23:09.029Z,7.99
2022-12-24T05:26:06.968Z,7.99
2022-12-24T05:28:46.764Z,7.99
2022-12-24T05:31:27.321Z,8.02
2022-12-24T05:34:08.173Z,8.02
2022-12-24T05:36:49.385Z,8.00
2022-12-24T05:39:29.176Z,7.95
2022-12-24T05:42:09.094Z,7.99
2022-12-24T05:44:46.923Z,7.96
2022-12-24T05:47:28.991Z,7.94
2022-12-24T05:50:12.183Z,7.93
2022-12-24T05:52:51.127Z,7.88
2022-12-24T05:55:33.240Z,7.89
2022-12-24T05:58:14.935Z,7.87
2022-12-24T06:00:55.359Z,7.85
2022-12-24T06:03:35.594Z,7.86
2022-12-24T06:06:19.126Z,7.88
2022-12-24T06:08:59.890Z,7.87
2022-12-24T06:11:39.700Z,7.86
2022-12-24T06:14:21.238Z,7.88
2022-12-24T06:17:00.909Z,7.88
2022-12-24T06:19:38.804Z,7.86
2022-12-24T06:22:18.895Z,7.89
2022-12-24T06:25:00.745Z,7.89
2022-12-24T06:27:43.772Z,7.88
2022-12-24T06:30:26.739Z,7.87
2022-12-24T06:33:07.785Z,7.89
2022-12-24T06:35:47.569Z,7.84
2022-12-24T06:38:31.767Z,7.85
2022-12-24T06:41:13.951Z,7.85
2022-12-24T06:43:55.055Z,7.84
2022-12-24T06:46:34.808Z,7.86
2022-12-24T06:49:12.872Z,7.87
2022-12-24T06:51:54.767Z,7.84
2022-12-24T06:54:35.801Z,7.82
2022-12-24T06:57:17.590Z,7.80
2022-12-24T06:59:58.744Z,7.82
2022-12-24T07:02:40.149Z,7.75
2022-12-24T07:05:21.817Z,7.70
2022-12-24T07:08:02.813Z,7.64
2022-12-24T07:10:40.775Z,7.63
2022-12-24T07:13:20.831Z,7.58
2022-12-24T07:16:03.498Z,7.59
2022-12-24T07:18:43.751Z,7.60
2022-12-24T07:21:25.504Z,7.60
2022-12-24T07:24:06.942Z,7.55
2022-12-24T07:26:49.939Z,7.56
2022-12-24T07:29:30.883Z,7.56
2022-12-24T07:32:10.827Z,7.50
2022-12-24T07:34:48.617Z,7.51
2022-12-24T07:37:28.429Z,7.49
2022-12-24T07:40:09.659Z,7.48
2022-12-24T07:42:49.957Z,7.46
2022-12-24T07:45:29.418Z,7.41
2022-12-24T07:48:11.567Z,7.39
2022-12-24T07:50:52.738Z,7.35
2022-12-24T07:53:35.977Z,7.32
2022-12-24T07:56:18.962Z,7.31
2022-12-24T07:59:00.048Z,7.30
2022-12-24T08:01:42.079Z,7.31
2022-12-24T08:04:22.768Z,7.29
2022-12-24T08:07:02.584Z,7.24
2022-12-24T08:09:45.892Z,7.28
2022-12-24T08:12:25.128Z,7.29
2022-12-24T08:15:05.645Z,7.30
2022-12-24T08:17:46.629Z,7.32
2022-12-24T08:20:26.484Z,7.34
2022-12-24T08:23:06.285Z,7.38
2022-12-24T08:25:46.493Z,7.40
2022-12-24T08:28:27.447Z,7.43
2022-12-24T08:31:07.399Z,7.47
2022-12-24T08:33:49.058Z,7.51
2022-12-24T08:36:32.201Z,7.54
2022-12-24T08:39:13.080Z,7.54
2022-12-24T08:41:54.849Z,7.58
2022-12-24T08:44:35.881Z,7.64
2022-12-24T08:47:17.683Z,7.68
2022-12-24T08:49:58.700Z,7.71
2022-12-24T08:52:38.565Z,7.71
2022-12-24T08:55:18.470Z,7.71
2022-12-24T08:58:00.167Z,7.68
2022-12-24T09:00:44.238Z,7.67
2022-12-24T09:03:27.815Z,7.69
2022-12-24T09:06:11.076Z,7.70
2022-12-24T09:08:50.087Z,7.68
2022-12-24T09:11:31.095Z,7.70
2022-12-24T09:14:11.376Z,7.73
2022-12-24T09:16:53.210Z,7.76
2022-12-24T09:19:34.198Z,7.78
2022-12-24T09:22:14.220Z,7.81
2022-12-24T09:24:55.971Z,7.85
2022-12-24T09:27:36.803Z,7.85
2022-12-24T09:30:37.490Z,7.87
2022-12-24T09:33:18.913Z,7.95
2022-12-24T09:36:00.224Z,7.97
2022-12-24T09:38:41.029Z,8.03
2022-12-24T09:41:25.734Z,8.09
2022-12-24T09:44:09.217Z,8.18
2022-12-24T09:46:49.108Z,8.22
2022-12-24T09:49:32.284Z,8.28
2022-12-24T09:52:16.307Z,8.35
2022-12-24T09:54:57.565Z,8.44
2022-12-24T09:57:38.276Z,8.52
2022-12-24T10:00:20.648Z,8.60
2022-12-24T10:03:00.738Z,8.69
2022-12-24T10:05:42.691Z,8.77
2022-12-24T10:08:26.769Z,8.82
2022-12-24T10:11:07.452Z,8.91
2022-12-24T10:13:58.394Z,8.96
2022-12-24T10:16:44.023Z,9.04
2022-12-24T10:19:29.911Z,9.04
2022-12-24T10:22:13.477Z,9.09
2022-12-24T10:24:55.450Z,9.10
2022-12-24T10:27:37.108Z,9.21
2022-12-24T10:30:19.605Z,9.27
2022-12-24T10:33:00.154Z,9.35
2022-12-24T10:35:43.881Z,9.41
2022-12-24T10:38:26.678Z,9.42
2022-12-24T10:41:08.174Z,9.41
2022-12-24T10:43:47.123Z,9.45
2022-12-24T10:46:30.381Z,9.37
2022-12-24T10:49:13.326Z,9.41
2022-12-24T10:51:57.728Z,9.38
2022-12-24T10:54:39.812Z,9.36
2022-12-24T10:57:26.401Z,9.39
2022-12-24T11:00:08.160Z,9.39
2022-12-24T11:02:49.417Z,9.42
2022-12-24T11:05:32.311Z,9.34
2022-12-24T11:08:17.931Z,9.38
2022-12-24T11:10:59.810Z,9.45
2022-12-24T11:13:44.408Z,9.46
2022-12-24T11:16:26.183Z,9.47
2022-12-24T11:19:07.428Z,9.48
2022-12-24T11:21:47.894Z,9.49
2022-12-24T11:24:28.530Z,9.49
2022-12-24T11:27:44.223Z,9.45
2022-12-24T11:30:26.169Z,9.44
2022-12-24T11:33:22.656Z,9.45
2022-12-24T11:36:03.858Z,9.40
2022-12-24T11:38:44.368Z,9.36
2022-12-24T11:41:26.225Z,9.36
2022-12-24T11:44:09.983Z,9.33
2022-12-24T11:46:52.273Z,9.28
2022-12-24T11:49:33.254Z,9.22
2022-12-24T11:52:22.861Z,9.17
2022-12-24T11:55:08.964Z,9.16
2022-12-24T11:57:57.348Z,9.17
2022-12-24T12:00:37.997Z,9.03
2022-12-24T12:03:24.701Z,9.09
2022-12-24T12:06:07.962Z,9.06
2022-12-24T12:08:50.642Z,9.06
2022-12-24T12:11:31.645Z,9.04
2022-12-24T12:14:12.283Z,9.04
2022-12-24T12:17:01.750Z,9.04
2022-12-24T12:19:42.005Z,9.04
2022-12-24T12:22:24.460Z,8.99
2022-12-24T12:25:05.436Z,9.00
2022-12-24T12:27:44.923Z,8.99
2022-12-24T12:30:24.289Z,9.03
2022-12-24T12:33:05.993Z,9.03
2022-12-24T12:35:45.925Z,9.03
2022-12-24T12:38:24.449Z,9.00
2022-12-24T12:41:05.290Z,9.07
2022-12-24T12:43:56.241Z,9.06
2022-12-24T12:46:38.960Z,9.07
2022-12-24T12:49:23.144Z,9.12
2022-12-24T12:52:03.504Z,9.13
2022-12-24T12:54:55.022Z,9.16
2022-12-24T12:57:34.509Z,9.18
2022-12-24T13:00:13.370Z,9.23
2022-12-24T13:03:01.221Z,9.25
2022-12-24T13:05:55.641Z,9.28
2022-12-24T13:08:43.502Z,9.31
2022-12-24T13:11:27.781Z,9.39
2022-12-24T13:14:16.304Z,9.45
2022-12-24T13:17:06.867Z,9.50
2022-12-24T13:19:53.377Z,9.52
2022-12-24T13:22:35.805Z,9.54
2022-12-24T13:25:20.749Z,9.51
2022-12-24T13:28:15.051Z,9.23
2022-12-24T13:31:15.710Z,9.11
2022-12-24T13:33:54.410Z,9.00
2022-12-24T13:36:52.096Z,9.01
2022-12-24T13:39:32.350Z,8.87
2022-12-24T13:42:13.282Z,8.73
2022-12-24T13:44:51.248Z,8.64
2022-12-24T13:47:46.792Z,8.61
2022-12-24T13:50:29.986Z,8.51
2022-12-24T13:53:22.256Z,8.47
2022-12-24T13:56:05.505Z,8.44
2022-12-24T13:58:46.819Z,8.33
2022-12-24T14:01:34.972Z,8.31
2022-12-24T14:04:21.942Z,8.28
2022-12-24T14:07:02.493Z,8.25
2022-12-24T14:09:43.142Z,8.23
2022-12-24T14:12:51.893Z,8.22
2022-12-24T14:16:05.541Z,8.16
2022-12-24T14:18:47.699Z,8.19
2022-12-24T14:21:29.725Z,8.19
2022-12-24T14:24:13.404Z,8.16
2022-12-24T14:26:54.890Z,8.14
2022-12-24T14:29:38.507Z,8.13
2022-12-24T14:32:20.597Z,8.05
2022-12-24T14:35:08.845Z,8.02
2022-12-24T14:37:49.829Z,7.99
2022-12-24T14:40:31.098Z,7.97
2022-12-24T14:43:13.134Z,7.92
2022-12-24T14:45:57.787Z,7.83
2022-12-24T14:48:38.577Z,7.80
2022-12-24T14:51:22.089Z,7.76
2022-12-24T14:54:14.185Z,7.72
2022-12-24T14:57:08.794Z,7.67
2022-12-24T14:59:50.229Z,7.62
2022-12-24T15:02:41.831Z,7.57
2022-12-24T15:05:20.731Z,7.56
2022-12-24T15:08:00.201Z,7.51
2022-12-24T15:10:43.851Z,7.49
2022-12-24T15:13:27.452Z,7.45
2022-12-24T15:16:09.007Z,7.43
2022-12-24T15:18:49.962Z,7.38
2022-12-24T15:21:31.004Z,7.36
2022-12-24T15:24:25.163Z,7.30
2022-12-24T15:27:13.870Z,7.25
2022-12-24T15:29:59.764Z,7.21
2022-12-24T15:32:40.031Z,7.18
2022-12-24T15:35:50.222Z,7.16
2022-12-24T15:38:32.692Z,7.11
2022-12-24T15:41:16.278Z,7.09
2022-12-24T15:44:00.189Z,7.12
2022-12-24T15:46:40.849Z,7.17
2022-12-24T15:49:27.877Z,7.17
2022-12-24T15:52:09.023Z,7.16
2022-12-24T15:54:55.548Z,7.13
2022-12-24T15:57:37.224Z,7.13
2022-12-24T16:00:21.515Z,7.15
2022-12-24T16:03:18.064Z,7.14
2022-12-24T16:06:02.680Z,7.14
2022-12-24T16:08:44.028Z,7.13
2022-12-24T16:11:25.489Z,7.11
2022-12-24T16:14:08.229Z,7.06
2022-12-24T16:16:48.826Z,7.05
2022-12-24T16:19:32.894Z,6.99
2022-12-24T16:22:35.938Z,6.92
2022-12-24T16:25:26.028Z,6.93
2022-12-24T16:28:12.066Z,6.90
2022-12-24T16:30:55.582Z,6.88
2022-12-24T16:33:36.293Z,6.88
2022-12-24T16:36:16.596Z,6.83
2022-12-24T16:39:17.164Z,6.83
2022-12-24T16:42:16.584Z,6.80
2022-12-24T16:44:55.693Z,6.75
2022-12-24T16:47:42.376Z,6.71
2022-12-24T16:50:26.000Z,6.67
2022-12-24T16:53:06.328Z,6.62
2022-12-24T16:55:47.483Z,6.59
2022-12-24T16:58:27.433Z,6.51
2022-12-24T17:01:10.729Z,6.51
2022-12-24T17:03:51.844Z,6.50
2022-12-24T17:06:31.005Z,6.46
2022-12-24T17:09:09.920Z,6.45
2022-12-24T17:11:49.631Z,6.40
2022-12-24T17:14:31.495Z,6.36
2022-12-24T17:17:17.823Z,6.35
2022-12-24T17:19:58.827Z,6.27
2022-12-24T17:22:38.456Z,6.20
2022-12-24T17:25:20.434Z,6.15
2022-12-24T17:27:59.388Z,6.11
2022-12-24T17:30:41.400Z,6.07
2022-12-24T17:33:22.610Z,6.00
2022-12-24T17:36:02.271Z,6.00
2022-12-24T17:38:42.075Z,5.96
2022-12-24T17:41:22.444Z,5.91
2022-12-24T17:44:04.710Z,5.88
2022-12-24T17:46:47.120Z,5.82
2022-12-24T17:49:30.770Z,5.75
2022-12-24T17:52:08.847Z,5.72
2022-12-24T17:54:49.143Z,5.68
2022-12-24T17:57:30.490Z,5.61
2022-12-24T18:00:13.217Z,5.56
2022-12-24T18:02:53.260Z,5.53
2022-12-24T18:05:34.212Z,5.54
2022-12-24T18:08:16.891Z,5.53
2022-12-24T18:10:57.393Z,5.50
2022-12-24T18:13:39.268Z,5.43
2022-12-24T18:16:21.761Z,5.40
2022-12-24T18:19:01.620Z,5.36
2022-12-24T18:21:41.416Z,5.34
2022-12-24T18:24:21.300Z,5.33
2022-12-24T18:27:02.903Z,5.36
2022-12-24T18:29:44.202Z,5.37
2022-12-24T18:32:23.851Z,5.41
2022-12-24T18:35:06.118Z,5.42
2022-12-24T18:37:46.782Z,5.41
2022-12-24T18:40:26.562Z,5.36
2022-12-24T18:43:06.260Z,5.32
2022-12-24T18:45:46.295Z,5.26
2022-12-24T18:48:27.460Z,5.22
2022-12-24T18:51:07.733Z,5.16
2022-12-24T18:53:46.879Z,5.17
2022-12-24T18:56:28.916Z,5.11
2022-12-24T18:59:11.907Z,5.11
2022-12-24T19:01:53.082Z,5.14
2022-12-24T19:04:34.598Z,5.15
2022-12-24T19:07:17.759Z,5.18
2022-12-24T19:10:00.735Z,5.18
2022-12-24T19:12:39.906Z,5.23
2022-12-24T19:15:18.229Z,5.23
2022-12-24T19:17:58.211Z,5.28
2022-12-24T19:20:40.675Z,5.28
2022-12-24T19:23:19.182Z,5.26
2022-12-24T19:25:59.191Z,5.25
2022-12-24T19:28:39.034Z,5.19
2022-12-24T19:31:21.380Z,5.14
2022-12-24T19:34:02.083Z,5.13
2022-12-24T19:36:43.336Z,5.06
2022-12-24T19:39:31.580Z,5.01
2022-12-24T19:42:14.696Z,4.98
2022-12-24T19:44:55.533Z,4.93
2022-12-24T19:47:37.238Z,4.91
2022-12-24T19:50:18.946Z,4.83
2022-12-24T19:52:59.972Z,4.70
2022-12-24T19:55:42.584Z,4.70
2022-12-24T19:58:22.495Z,4.66
2022-12-24T20:01:12.765Z,4.69
2022-12-24T20:03:53.272Z,4.70
2022-12-24T20:06:33.855Z,4.68
2022-12-24T20:09:16.472Z,4.72
2022-12-24T20:11:57.512Z,4.73
2022-12-24T20:14:37.311Z,4.73
2022-12-24T20:17:17.232Z,4.74
2022-12-24T20:19:56.902Z,4.71
2022-12-24T20:22:36.748Z,4.64
2022-12-24T20:25:16.681Z,4.60
2022-12-24T20:27:56.411Z,4.55
2022-12-24T20:30:37.734Z,4.52
2022-12-24T20:33:19.181Z,4.47
2022-12-24T20:35:57.093Z,4.42
2022-12-24T20:38:37.237Z,4.32
2022-12-24T20:41:17.504Z,4.29
2022-12-24T20:43:59.475Z,4.28
2022-12-24T20:46:37.965Z,4.24
2022-12-24T20:49:18.008Z,4.17
2022-12-24T20:51:59.824Z,4.09
2022-12-24T20:54:40.845Z,4.01
2022-12-24T20:57:25.938Z,3.92
2022-12-24T21:00:14.714Z,3.84
2022-12-24T21:02:54.873Z,3.80
2022-12-24T21:05:36.059Z,3.74
2022-12-24T21:08:15.986Z,3.68
2022-12-24T21:11:11.777Z,3.63
2022-12-24T21:13:52.219Z,3.58
2022-12-24T21:16:34.511Z,3.53
2022-12-24T21:19:15.390Z,3.46
2022-12-24T21:22:16.516Z,3.41
2022-12-24T21:24:56.317Z,3.40
2022-12-24T21:27:34.259Z,3.37
2022-12-24T21:30:16.451Z,3.31
2022-12-24T21:32:57.331Z,3.30
2022-12-24T21:35:37.125Z,3.27
2022-12-24T21:38:15.212Z,3.16
2022-12-24T21:41:02.014Z,3.13
2022-12-24T21:43:43.287Z,3.10
2022-12-24T21:46:25.712Z,3.03
2022-12-24T21:49:23.377Z,3.06
2022-12-24T21:52:03.308Z,3.06
2022-12-24T21:54:44.596Z,3.00
2022-12-24T21:57:41.300Z,2.94
2022-12-24T22:00:30.402Z,2.91
2022-12-24T22:03:11.267Z,2.84
2022-12-24T22:05:51.040Z,2.84
2022-12-24T22:08:50.627Z,2.82
2022-12-24T22:11:54.357Z,2.83
2022-12-24T22:14:35.242Z,2.81
2022-12-24T22:17:19.774Z,2.79
2022-12-24T22:20:04.962Z,2.77
2022-12-24T22:22:45.887Z,2.73
2022-12-24T22:25:25.675Z,2.69
2022-12-24T22:28:05.599Z,2.67
2022-12-24T22:30:45.307Z,2.63
2022-12-24T22:33:25.914Z,2.60
2022-12-24T22:36:06.832Z,2.57
2022-12-24T22:38:47.940Z,2.52
2022-12-24T22:41:29.952Z,2.50
2022-12-24T22:44:12.711Z,2.45
2022-12-24T22:46:53.747Z,2.38
2022-12-24T22:49:31.711Z,2.34
2022-12-24T22:52:11.750Z,2.33
2022-12-24T22:54:51.580Z,2.27
2022-12-24T22:57:29.490Z,2.22
2022-12-24T23:00:11.027Z,2.17
2022-12-24T23:02:51.075Z,2.12
2022-12-24T23:05:30.813Z,2.07
2022-12-24T23:08:11.284Z,2.03
2022-12-24T23:10:55.654Z,1.99
2022-12-24T23:13:54.776Z,1.92
2022-12-24T23:16:35.637Z,1.89
2022-12-24T23:19:17.535Z,1.81
2022-12-24T23:21:59.444Z,1.77
2022-12-24T23:24:41.313Z,1.71
2022-12-24T23:27:23.627Z,1.65
2022-12-24T23:30:04.496Z,1.62
2022-12-24T23:32:45.671Z,1.58
2022-12-24T23:35:25.534Z,1.54
2022-12-24T23:38:05.292Z,1.50
2022-12-24T23:40:43.250Z,1.45
2022-12-24T23:43:23.297Z,1.33
2022-12-24T23:46:04.338Z,1.29
2022-12-24T23:48:45.726Z,1.25
2022-12-24T23:51:26.392Z,1.20
2022-12-24T23:54:06.453Z,1.20
2022-12-24T23:56:45.313Z,1.14
2022-12-24T23:59:25.405Z,1.12
